Time;durP1;ratioP1;P1;durP2;ratioP2;P2;SDS_P1;SDS_P2;PMS_P1;PMS_P2;Temp;Humidity;BMP_temperature;BMP_pressure;BME280_temperature;BME280_humidity;BME280_pressure;Samples;Min_cycle;Max_cycle;Signal;HPM_P1;HPM_P2
2023/03/21 00:01:37;;;;;;;1.50;1.40;;;18.90;44.90;;;;;;5005576;28;20227;-67
2023/03/21 00:04:03;;;;;;;1.20;1.10;;;18.90;44.90;;;;;;4995703;28;20220;-67
2023/03/21 00:06:28;;;;;;;1.30;1.20;;;18.90;44.90;;;;;;5003573;28;20999;-68
2023/03/21 00:08:54;;;;;;;1.40;1.30;;;18.90;44.80;;;;;;4999939;28;20219;-67
2023/03/21 00:11:20;;;;;;;1.87;1.57;;;18.90;44.80;;;;;;5005881;28;20216;-67
2023/03/21 00:13:46;;;;;;;1.23;1.13;;;18.90;44.90;;;;;;4999658;28;21139;-67
2023/03/21 00:16:17;;;;;;;1.20;1.10;;;18.90;44.80;;;;;;4994656;28;20541;-67
2023/03/21 00:18:45;;;;;;;1.83;1.30;;;18.90;44.90;;;;;;4991742;28;20227;-67
2023/03/21 00:21:16;;;;;;;1.83;1.20;;;18.90;44.90;;;;;;4999315;28;20453;-67
2023/03/21 00:23:43;;;;;;;1.30;1.20;;;18.90;44.90;;;;;;5001760;28;20432;-67
2023/03/21 00:26:09;;;;;;;1.37;1.27;;;18.90;44.90;;;;;;4995065;28;20528;-67
2023/03/21 00:28:44;;;;;;;1.37;1.27;;;18.80;44.80;;;;;;4995960;28;20479;-67
2023/03/21 00:31:09;;;;;;;1.23;1.10;;;18.80;44.80;;;;;;4999933;28;20554;-67
2023/03/21 00:33:37;;;;;;;1.50;1.40;;;18.90;44.90;;;;;;4993397;28;20465;-67
2023/03/21 00:36:03;;;;;;;1.73;1.10;;;18.80;44.80;;;;;;4994553;28;20220;-67
2023/03/21 00:38:29;;;;;;;2.27;1.50;;;18.80;44.80;;;;;;4999673;28;20490;-67
2023/03/21 00:40:54;;;;;;;1.43;1.33;;;18.80;44.90;;;;;;5000831;28;20220;-68
2023/03/21 00:43:28;;;;;;;2.13;1.23;;;18.90;45.00;;;;;;4996378;28;20255;-67
2023/03/21 00:45:55;;;;;;;2.90;1.20;;;18.90;45.00;;;;;;4999973;28;20228;-67
2023/03/21 00:48:20;;;;;;;1.40;1.30;;;18.80;44.80;;;;;;4993885;28;20448;-68
2023/03/21 00:50:46;;;;;;;1.40;1.30;;;18.80;44.80;;;;;;4991608;28;20489;-66
2023/03/21 00:53:13;;;;;;;1.97;1.40;;;18.90;45.00;;;;;;4997404;28;20749;-68
2023/03/21 00:55:38;;;;;;;1.40;1.23;;;18.80;44.90;;;;;;4994103;28;20484;-67
2023/03/21 00:58:05;;;;;;;1.40;1.30;;;18.90;45.00;;;;;;4989486;28;20876;-68
2023/03/21 01:00:32;;;;;;;1.50;1.40;;;18.90;44.90;;;;;;4994389;28;20216;-67
2023/03/21 01:03:04;;;;;;;1.33;1.20;;;18.90;44.90;;;;;;4984995;28;20444;-67
2023/03/21 01:08:21;;;;;;;1.77;1.27;;;18.90;45.70;;;;;;4996528;28;20479;-67
2023/03/21 01:10:48;;;;;;;1.40;1.30;;;18.80;44.90;;;;;;5001677;28;21582;-67
2023/03/21 01:13:16;;;;;;;1.83;1.10;;;18.80;44.90;;;;;;5001208;28;20247;-67
2023/03/21 01:15:48;;;;;;;1.40;1.30;;;18.80;44.90;;;;;;4994266;28;20412;-67
2023/03/21 01:18:16;;;;;;;1.40;1.30;;;18.80;45.00;;;;;;4995702;28;20509;-67
2023/03/21 01:20:44;;;;;;;1.40;1.30;;;18.80;45.00;;;;;;5001652;28;20464;-67
2023/03/21 01:23:10;;;;;;;2.80;1.60;;;18.80;45.00;;;;;;4993709;28;20439;-68
2023/03/21 01:25:36;;;;;;;1.30;1.20;;;18.80;44.90;;;;;;4999976;28;20467;-67
2023/03/21 01:28:02;;;;;;;1.60;1.50;;;18.80;44.90;;;;;;4994319;28;21007;-67
2023/03/21 01:30:27;;;;;;;2.03;1.40;;;18.80;45.00;;;;;;5001058;28;20855;-68
2023/03/21 01:32:53;;;;;;;1.10;1.00;;;18.80;45.70;;;;;;4999319;28;20259;-67
2023/03/21 01:35:19;;;;;;;1.30;1.20;;;18.80;45.00;;;;;;4990015;28;20256;-67
2023/03/21 01:37:44;;;;;;;1.30;1.20;;;18.80;45.00;;;;;;4995190;28;20255;-67
2023/03/21 01:40:20;;;;;;;1.20;1.10;;;18.80;45.00;;;;;;4993082;28;20674;-68
2023/03/21 01:42:46;;;;;;;1.37;1.27;;;18.80;44.90;;;;;;4987958;28;20219;-68
2023/03/21 01:45:49;;;;;;;1.10;1.00;;;18.80;45.00;;;;;;4995864;28;20431;-67
2023/03/21 01:48:15;;;;;;;1.40;1.30;;;18.80;45.00;;;;;;4998250;28;20235;-67
2023/03/21 01:50:41;;;;;;;1.60;1.50;;;18.80;45.00;;;;;;4992197;28;20479;-67
2023/03/21 01:53:07;;;;;;;1.10;1.00;;;18.80;45.00;;;;;;4986494;28;20440;-67
2023/03/21 01:55:35;;;;;;;1.60;1.50;;;18.80;45.00;;;;;;4994417;28;20519;-67
2023/03/21 01:58:03;;;;;;;2.50;1.30;;;18.80;45.00;;;;;;4991538;28;20238;-67
2023/03/21 02:00:30;;;;;;;1.60;1.50;;;18.80;45.00;;;;;;4992726;28;20469;-67
2023/03/21 02:02:58;;;;;;;1.40;1.30;;;18.80;45.00;;;;;;5000267;28;20453;-67
2023/03/21 02:05:44;;;;;;;1.40;1.30;;;18.80;45.00;;;;;;4997508;28;20976;-67
2023/03/21 02:08:12;;;;;;;1.70;1.40;;;18.80;45.00;;;;;;4992659;28;20432;-67
2023/03/21 02:10:38;;;;;;;1.93;1.30;;;18.80;45.00;;;;;;4998550;28;20463;-67
2023/03/21 02:13:08;;;;;;;2.00;1.30;;;18.80;45.00;;;;;;4996134;28;20484;-67
2023/03/21 02:15:46;;;;;;;1.50;1.40;;;18.80;45.00;;;;;;4999806;28;20513;-67
2023/03/21 02:18:23;;;;;;;1.57;1.37;;;18.80;45.00;;;;;;4993530;28;20463;-67
2023/03/21 02:21:04;;;;;;;1.20;1.10;;;18.80;45.00;;;;;;5000309;28;20434;-67
2023/03/21 02:24:02;;;;;;;1.43;1.33;;;18.80;45.00;;;;;;4998908;28;20443;-67
2023/03/21 02:27:05;;;;;;;2.20;1.60;;;18.80;45.00;;;;;;4995768;28;20462;-67
2023/03/21 02:29:55;;;;;;;1.30;1.20;;;18.80;45.10;;;;;;4999283;28;20486;-67
2023/03/21 02:37:38;;;;;;;1.20;1.10;;;18.80;45.10;;;;;;5028114;22;20468;-76
2023/03/21 02:40:10;;;;;;;1.47;1.37;;;18.80;45.10;;;;;;4935604;28;20500;-76
2023/03/21 02:42:54;;;;;;;1.40;1.30;;;18.70;45.00;;;;;;4938401;28;20538;-75
2023/03/21 02:45:24;;;;;;;1.33;1.23;;;18.80;45.10;;;;;;4938677;28;21019;-75
2023/03/21 02:47:56;;;;;;;1.27;1.17;;;18.80;45.10;;;;;;4936255;28;20443;-75
2023/03/21 02:50:47;;;;;;;1.60;1.50;;;18.80;45.10;;;;;;4935646;28;21109;-75
2023/03/21 02:53:16;;;;;;;1.40;1.30;;;18.80;45.10;;;;;;4934653;28;20952;-75
2023/03/21 02:55:44;;;;;;;1.40;1.30;;;18.70;45.00;;;;;;4938137;28;20414;-75
2023/03/21 02:58:15;;;;;;;1.30;1.10;;;18.80;45.10;;;;;;4937875;28;21018;-73
2023/03/21 03:00:43;;;;;;;1.40;1.30;;;18.70;45.00;;;;;;4942458;28;21026;-75
2023/03/21 03:03:09;;;;;;;1.67;1.57;;;18.80;45.10;;;;;;4940440;28;20956;-75
2023/03/21 03:05:41;;;;;;;1.30;1.20;;;18.70;45.00;;;;;;4941766;28;20434;-75
2023/03/21 03:08:25;;;;;;;1.37;1.27;;;18.80;45.10;;;;;;4939701;28;20500;-75
2023/03/21 03:11:24;;;;;;;1.43;1.33;;;18.70;45.00;;;;;;4939267;28;20954;-74
2023/03/21 03:14:32;;;;;;;1.27;1.10;;;18.80;45.10;;;;;;4939295;28;20985;-75
2023/03/21 03:17:18;;;;;;;1.23;1.13;;;18.80;45.10;;;;;;4939892;28;20613;-75
2023/03/21 03:20:01;;;;;;;1.47;1.37;;;18.70;45.00;;;;;;4942126;28;20456;-75
2023/03/21 03:22:39;;;;;;;1.30;1.20;;;18.80;45.10;;;;;;4940787;28;20974;-75
2023/03/21 03:25:09;;;;;;;1.30;1.20;;;18.70;45.10;;;;;;4942034;28;20434;-75
2023/03/21 03:27:39;;;;;;;1.40;1.30;;;18.70;45.10;;;;;;4939818;28;20426;-75
2023/03/21 03:30:06;;;;;;;1.30;1.20;;;18.70;45.10;;;;;;4937581;28;20451;-75
2023/03/21 03:32:47;;;;;;;1.30;1.20;;;18.70;45.10;;;;;;4941556;28;20444;-75
2023/03/21 03:35:16;;;;;;;1.47;1.37;;;18.80;45.20;;;;;;4934700;28;20508;-74
2023/03/21 03:37:50;;;;;;;1.60;1.50;;;18.70;45.10;;;;;;4930039;28;20434;-74
2023/03/21 03:40:30;;;;;;;1.30;1.20;;;18.70;45.10;;;;;;4939585;28;20494;-73
2023/03/21 03:43:01;;;;;;;1.50;1.40;;;18.70;45.10;;;;;;4944227;28;20422;-75
2023/03/21 03:45:36;;;;;;;1.80;1.50;;;18.70;45.10;;;;;;4942213;28;20517;-75
2023/03/21 03:48:34;;;;;;;1.40;1.30;;;18.70;45.10;;;;;;4941565;28;20438;-75
2023/03/21 03:51:05;;;;;;;1.60;1.50;;;18.80;45.20;;;;;;4942203;28;20529;-75
2023/03/21 03:53:31;;;;;;;1.40;1.30;;;18.70;45.10;;;;;;4941736;28;20501;-76
2023/03/21 03:55:59;;;;;;;2.90;1.30;;;18.70;45.10;;;;;;4945762;28;20442;-75
2023/03/21 03:58:26;;;;;;;1.57;1.47;;;18.70;45.10;;;;;;4940383;28;20221;-75
2023/03/21 04:00:53;;;;;;;1.60;1.50;;;18.70;45.10;;;;;;4939845;28;20487;-75
2023/03/21 04:03:19;;;;;;;1.30;1.20;;;18.70;45.10;;;;;;4942108;28;20407;-75
2023/03/21 04:05:45;;;;;;;1.40;1.30;;;18.70;45.10;;;;;;4929173;28;20414;-74
2023/03/21 04:08:12;;;;;;;1.50;1.30;;;18.70;45.10;;;;;;4938505;28;20248;-75
2023/03/21 04:10:39;;;;;;;1.53;1.43;;;18.70;45.10;;;;;;4944352;28;20320;-75
2023/03/21 04:13:04;;;;;;;1.50;1.40;;;18.70;45.10;;;;;;4941493;28;20435;-75
2023/03/21 04:15:30;;;;;;;1.67;1.10;;;18.70;45.10;;;;;;4941233;28;20515;-74
2023/03/21 04:17:56;;;;;;;1.30;1.20;;;18.70;45.10;;;;;;4923724;28;20633;-74
2023/03/21 04:20:21;;;;;;;1.80;1.70;;;18.70;45.10;;;;;;4922143;28;20313;-75
2023/03/21 04:22:47;;;;;;;1.47;1.37;;;18.70;45.90;;;;;;4936982;28;20606;-75
2023/03/21 04:25:14;;;;;;;1.40;1.30;;;18.70;45.10;;;;;;4942055;28;20218;-75
2023/03/21 04:27:39;;;;;;;1.50;1.40;;;18.70;45.10;;;;;;4938386;28;20218;-75
2023/03/21 04:30:06;;;;;;;1.70;1.60;;;18.70;45.10;;;;;;4939667;28;20450;-75
2023/03/21 04:32:32;;;;;;;1.50;1.40;;;18.70;45.20;;;;;;4937941;28;20568;-75
2023/03/21 04:34:59;;;;;;;1.37;1.27;;;18.70;45.10;;;;;;4942396;28;20533;-75
2023/03/21 04:37:26;;;;;;;1.50;1.40;;;18.70;45.10;;;;;;4935039;28;20457;-75
2023/03/21 04:39:52;;;;;;;1.37;1.27;;;18.70;45.10;;;;;;4940728;28;20525;-75
2023/03/21 04:42:18;;;;;;;1.30;1.20;;;18.70;45.10;;;;;;4939215;28;20463;-74
2023/03/21 04:44:45;;;;;;;1.50;1.40;;;18.70;45.10;;;;;;4943600;28;20248;-75
2023/03/21 04:47:12;;;;;;;1.57;1.47;;;18.70;45.10;;;;;;4938503;28;20304;-74
2023/03/21 04:49:38;;;;;;;1.60;1.50;;;18.70;45.10;;;;;;4940603;28;20455;-75
2023/03/21 04:52:04;;;;;;;3.53;1.50;;;18.70;45.10;;;;;;4941086;28;20844;-75
2023/03/21 04:54:31;;;;;;;1.40;1.30;;;18.80;45.20;;;;;;4941339;28;20222;-75
2023/03/21 04:56:57;;;;;;;2.00;1.80;;;18.80;45.10;;;;;;4943695;28;20455;-75
2023/03/21 04:59:22;;;;;;;1.80;1.70;;;18.80;45.20;;;;;;4939208;28;20452;-74
2023/03/21 05:01:48;;;;;;;1.57;1.47;;;18.80;45.10;;;;;;4941866;28;20460;-74
2023/03/21 05:04:14;;;;;;;1.53;1.43;;;18.80;45.10;;;;;;4943025;28;20605;-73
2023/03/21 05:06:41;;;;;;;2.90;1.57;;;18.80;45.10;;;;;;4938110;28;20439;-72
2023/03/21 05:09:07;;;;;;;1.43;1.33;;;18.80;45.10;;;;;;4943199;28;20647;-72
2023/03/21 05:11:36;;;;;;;1.63;1.53;;;18.80;45.00;;;;;;4938255;28;20551;-72
2023/03/21 05:14:06;;;;;;;1.80;1.50;;;18.80;45.00;;;;;;4941342;28;20547;-75
2023/03/21 05:16:33;;;;;;;2.03;1.83;;;18.90;45.00;;;;;;4938442;28;20975;-76
2023/03/21 05:19:03;;;;;;;2.07;1.97;;;18.90;44.90;;;;;;4940455;28;20506;-75
2023/03/21 05:21:40;;;;;;;1.93;1.27;;;18.90;44.80;;;;;;4939171;28;20472;-75
2023/03/21 05:24:16;;;;;;;1.50;1.40;;;18.90;44.80;;;;;;4942327;28;20504;-75
2023/03/21 05:26:43;;;;;;;1.30;1.20;;;18.90;44.80;;;;;;4940311;28;20528;-75
2023/03/21 05:29:09;;;;;;;1.60;1.50;;;18.90;44.80;;;;;;4941583;28;20963;-75
2023/03/21 05:31:35;;;;;;;1.30;1.20;;;18.90;44.80;;;;;;4936029;28;20979;-75
2023/03/21 05:34:01;;;;;;;1.83;1.73;;;18.90;44.80;;;;;;4936358;28;20442;-79
2023/03/21 05:36:26;;;;;;;1.93;1.40;;;18.90;44.90;;;;;;4940026;28;20237;-75
2023/03/21 05:38:52;;;;;;;2.30;2.10;;;18.90;44.80;;;;;;4943960;28;20232;-74
2023/03/21 05:41:18;;;;;;;1.67;1.57;;;18.90;44.80;;;;;;4940877;28;20226;-75
2023/03/21 05:43:44;;;;;;;1.67;1.57;;;19.00;44.80;;;;;;4940071;28;20268;-75
2023/03/21 05:46:10;;;;;;;1.70;1.60;;;18.90;44.70;;;;;;4937492;28;20442;-73
2023/03/21 05:48:36;;;;;;;1.50;1.40;;;19.00;44.90;;;;;;4942463;28;21645;-73
2023/03/21 05:51:03;;;;;;;1.60;1.50;;;18.90;44.70;;;;;;4919786;28;20507;-74
2023/03/21 05:53:28;;;;;;;1.43;1.33;;;18.90;44.80;;;;;;4936943;28;20526;-74
2023/03/21 05:55:54;;;;;;;1.80;1.70;;;18.90;44.80;;;;;;4935659;28;20433;-74
2023/03/21 05:58:20;;;;;;;1.50;1.40;;;18.90;44.80;;;;;;4939349;28;20280;-73
2023/03/21 06:00:47;;;;;;;2.20;2.10;;;18.90;44.80;;;;;;4936980;28;20221;-75
2023/03/21 06:03:14;;;;;;;2.00;1.90;;;18.90;44.80;;;;;;4937573;28;20264;-74
2023/03/21 06:05:39;;;;;;;1.50;1.40;;;18.90;44.90;;;;;;4937822;28;20472;-74
2023/03/21 06:08:05;;;;;;;1.60;1.50;;;18.90;44.90;;;;;;4934252;28;20810;-74
2023/03/21 06:10:30;;;;;;;1.93;1.40;;;18.90;44.90;;;;;;4906483;28;20823;-71
2023/03/21 06:12:56;;;;;;;1.50;1.40;;;18.90;44.90;;;;;;4938914;28;20248;-72
2023/03/21 06:15:22;;;;;;;1.50;1.40;;;18.90;44.90;;;;;;4941683;28;20240;-75
2023/03/21 06:17:47;;;;;;;1.67;1.57;;;18.90;44.90;;;;;;4937659;28;20273;-74
2023/03/21 06:20:13;;;;;;;1.73;1.63;;;18.90;44.90;;;;;;4940133;28;20229;-75
2023/03/21 06:22:39;;;;;;;1.70;1.60;;;18.90;44.90;;;;;;4936081;28;20221;-75
2023/03/21 06:25:06;;;;;;;1.63;1.53;;;18.90;44.90;;;;;;4943069;28;20233;-73
2023/03/21 06:27:32;;;;;;;1.80;1.70;;;18.90;44.90;;;;;;4939884;28;20236;-72
2023/03/21 06:29:58;;;;;;;1.50;1.40;;;18.90;44.90;;;;;;4940930;28;20495;-72
2023/03/21 06:32:24;;;;;;;1.60;1.50;;;18.90;44.90;;;;;;4938122;28;20474;-72
2023/03/21 06:34:50;;;;;;;3.60;1.90;;;18.90;44.80;;;;;;4939998;28;20245;-72
2023/03/21 06:37:15;;;;;;;1.90;1.80;;;18.90;44.80;;;;;;4939117;28;20991;-72
2023/03/21 06:39:41;;;;;;;1.30;1.20;;;18.90;44.80;;;;;;4945443;28;20304;-72
2023/03/21 06:42:07;;;;;;;1.70;1.60;;;18.90;44.80;;;;;;4941195;28;20228;-72
2023/03/21 06:44:32;;;;;;;1.67;1.57;;;18.90;44.80;;;;;;4942225;28;20229;-75
2023/03/21 06:46:58;;;;;;;1.87;1.77;;;18.90;44.80;;;;;;4940758;28;20253;-78
2023/03/21 06:49:23;;;;;;;1.40;1.30;;;18.90;44.90;;;;;;4943915;28;20263;-76
2023/03/21 06:51:49;;;;;;;1.80;1.67;;;18.90;44.90;;;;;;4947265;28;20225;-75
2023/03/21 06:54:17;;;;;;;1.50;1.40;;;18.90;44.80;;;;;;4938427;28;20753;-75
2023/03/21 06:56:43;;;;;;;1.60;1.50;;;18.90;44.90;;;;;;4940955;28;20252;-75
2023/03/21 06:59:09;;;;;;;1.67;1.57;;;18.90;44.90;;;;;;4939527;28;20442;-74
2023/03/21 07:01:34;;;;;;;1.73;1.63;;;18.90;44.90;;;;;;4943609;28;20424;-73
2023/03/21 07:04:00;;;;;;;2.67;1.70;;;18.90;44.90;;;;;;4945298;28;20733;-74
2023/03/21 07:06:26;;;;;;;1.60;1.50;;;18.90;44.90;;;;;;4943345;28;20279;-74
2023/03/21 07:08:53;;;;;;;1.70;1.50;;;18.90;44.90;;;;;;4943043;28;20437;-74
2023/03/21 07:11:20;;;;;;;1.70;1.60;;;18.90;44.90;;;;;;4946641;28;20233;-74
2023/03/21 07:13:47;;;;;;;1.57;1.40;;;18.90;44.80;;;;;;4943508;28;20478;-75
2023/03/21 07:16:13;;;;;;;1.47;1.37;;;18.90;44.90;;;;;;4945340;28;20435;-74
2023/03/21 07:18:39;;;;;;;1.67;1.57;;;18.90;44.90;;;;;;4943986;28;20500;-74
2023/03/21 07:21:04;;;;;;;1.70;1.60;;;18.90;44.90;;;;;;4943479;28;20423;-72
2023/03/21 07:23:30;;;;;;;1.73;1.63;;;18.90;44.90;;;;;;4941069;28;20232;-74
2023/03/21 07:25:56;;;;;;;1.47;1.37;;;18.90;44.90;;;;;;4944142;28;20232;-73
2023/03/21 07:28:22;;;;;;;1.90;1.80;;;18.90;44.90;;;;;;4943297;28;20667;-76
2023/03/21 07:30:54;;;;;;;1.43;1.33;;;18.90;44.90;;;;;;4928658;28;20325;-74
2023/03/21 07:33:20;;;;;;;1.40;1.20;;;18.90;44.90;;;;;;4941842;28;20877;-73
2023/03/21 07:35:45;;;;;;;1.90;1.40;;;18.90;44.90;;;;;;4939848;28;20496;-74
2023/03/21 07:38:12;;;;;;;1.77;1.67;;;18.90;44.90;;;;;;4942269;28;20236;-74
2023/03/21 07:40:38;;;;;;;1.80;1.20;;;18.90;44.90;;;;;;4941518;28;22429;-74
2023/03/21 07:43:03;;;;;;;2.07;1.37;;;18.90;44.90;;;;;;4936064;28;20510;-76
2023/03/21 07:45:29;;;;;;;1.50;1.40;;;18.90;44.90;;;;;;4938755;28;20233;-75
2023/03/21 07:47:55;;;;;;;1.87;1.77;;;18.90;44.90;;;;;;4931909;28;20221;-74
2023/03/21 07:50:21;;;;;;;1.60;1.50;;;18.90;44.90;;;;;;4938861;28;21795;-75
2023/03/21 07:52:46;;;;;;;1.77;1.57;;;18.90;44.90;;;;;;4944284;28;20639;-76
2023/03/21 07:55:12;;;;;;;1.70;1.60;;;18.90;44.90;;;;;;4944326;28;21131;-74
2023/03/21 07:57:38;;;;;;;1.60;1.50;;;18.90;45.00;;;;;;4931109;28;20228;-71
2023/03/21 08:00:05;;;;;;;5.30;1.50;;;18.90;45.00;;;;;;4936819;28;20857;-72
2023/03/21 08:02:31;;;;;;;2.00;1.90;;;18.90;44.90;;;;;;4927243;28;20232;-72
2023/03/21 08:04:56;;;;;;;1.73;1.63;;;18.90;44.90;;;;;;4939030;28;21151;-72
2023/03/21 08:07:22;;;;;;;4.80;1.80;;;18.90;44.90;;;;;;4941378;28;20748;-72
2023/03/21 08:09:47;;;;;;;1.30;1.20;;;18.90;45.00;;;;;;4940786;28;20226;-72
2023/03/21 08:12:13;;;;;;;1.50;1.40;;;18.90;45.00;;;;;;4938015;28;20256;-74
2023/03/21 08:14:38;;;;;;;2.53;1.70;;;18.90;45.00;;;;;;4936241;28;20358;-74
2023/03/21 08:17:05;;;;;;;1.67;1.47;;;18.90;45.00;;;;;;4939745;28;20252;-71
2023/03/21 08:19:30;;;;;;;1.67;1.57;;;18.90;45.00;;;;;;4931045;28;20261;-76
2023/03/21 08:22:00;;;;;;;1.33;1.23;;;18.90;45.00;;;;;;4929528;28;20456;-73
2023/03/21 08:24:27;;;;;;;2.00;1.80;;;18.90;45.00;;;;;;4938351;28;20228;-73
2023/03/21 08:26:52;;;;;;;1.43;1.33;;;18.90;45.10;;;;;;4935888;28;20940;-72
2023/03/21 08:29:18;;;;;;;1.60;1.50;;;18.90;45.00;;;;;;4936305;28;20527;-74
2023/03/21 08:31:43;;;;;;;1.47;1.37;;;18.90;45.00;;;;;;4934779;28;20304;-74
2023/03/21 08:34:09;;;;;;;1.40;1.30;;;18.90;45.50;;;;;;4933080;28;20232;-73
2023/03/21 08:36:35;;;;;;;1.40;1.30;;;18.90;45.00;;;;;;4939164;28;21313;-73
2023/03/21 08:39:05;;;;;;;1.53;1.40;;;18.90;45.00;;;;;;4938395;28;20226;-73
2023/03/21 08:41:33;;;;;;;1.40;1.30;;;18.90;45.00;;;;;;4931022;28;20450;-73
2023/03/21 08:43:58;;;;;;;1.30;1.20;;;18.80;44.90;;;;;;4934966;28;20471;-73
2023/03/21 08:46:24;;;;;;;1.30;1.20;;;18.90;45.00;;;;;;4939235;28;20434;-73
2023/03/21 08:48:49;;;;;;;1.50;1.40;;;18.90;45.00;;;;;;4939488;28;20906;-74
2023/03/21 08:51:15;;;;;;;1.70;1.60;;;18.90;45.00;;;;;;4934739;28;20237;-74
2023/03/21 08:53:42;;;;;;;1.60;1.50;;;18.80;44.90;;;;;;4935554;28;20709;-74
2023/03/21 08:56:09;;;;;;;1.50;1.27;;;18.90;45.00;;;;;;4940375;28;20232;-74
2023/03/21 08:58:35;;;;;;;1.50;1.40;;;18.80;44.90;;;;;;4933524;28;20475;-74
2023/03/21 09:01:01;;;;;;;1.60;1.50;;;18.90;45.00;;;;;;4933442;28;20453;-74
2023/03/21 09:03:26;;;;;;;1.63;1.23;;;18.80;44.90;;;;;;4936070;28;21036;-74
2023/03/21 09:05:53;;;;;;;1.40;1.30;;;18.80;44.90;;;;;;4939547;28;20232;-74
2023/03/21 09:08:22;;;;;;;1.93;1.60;;;18.80;44.90;;;;;;4937786;28;20229;-74
2023/03/21 09:10:51;;;;;;;1.33;1.23;;;18.80;45.00;;;;;;4932544;28;20541;-74
2023/03/21 09:13:17;;;;;;;1.30;1.20;;;18.90;45.00;;;;;;4935245;28;20426;-73
2023/03/21 09:15:44;;;;;;;1.40;1.30;;;18.80;45.00;;;;;;4936457;28;21039;-74
2023/03/21 09:18:14;;;;;;;1.37;1.27;;;18.90;45.00;;;;;;4934964;28;20902;-74
2023/03/21 09:20:41;;;;;;;1.60;1.50;;;18.80;44.90;;;;;;4937166;28;20478;-74
2023/03/21 09:23:07;;;;;;;1.60;1.50;;;18.90;45.00;;;;;;4941048;28;20566;-74
2023/03/21 09:25:33;;;;;;;1.30;1.20;;;18.80;44.80;;;;;;4930917;28;20479;-73
2023/03/21 09:28:03;;;;;;;2.03;1.50;;;18.90;45.00;;;;;;4937680;28;20470;-74
2023/03/21 09:30:30;;;;;;;1.77;1.23;;;18.90;45.00;;;;;;4939433;28;20893;-74
2023/03/21 09:32:57;;;;;;;1.40;1.30;;;18.90;45.00;;;;;;4935814;28;20443;-73
2023/03/21 09:35:23;;;;;;;2.00;1.40;;;18.90;44.90;;;;;;4940011;28;20450;-74
2023/03/21 09:37:49;;;;;;;1.43;1.33;;;18.90;44.90;;;;;;4895698;29;20990;-75
2023/03/21 09:40:16;;;;;;;1.77;1.43;;;18.90;45.00;;;;;;4915763;29;20476;-74
2023/03/21 09:43:02;;;;;;;1.40;1.30;;;18.90;45.00;;;;;;4916884;29;20476;-72
2023/03/21 09:45:55;;;;;;;1.37;1.20;;;18.80;44.80;;;;;;4918594;29;20450;-74
2023/03/21 09:48:57;;;;;;;1.37;1.27;;;18.90;44.90;;;;;;4893470;29;20467;-74
2023/03/21 09:51:27;;;;;;;1.33;1.23;;;18.80;44.80;;;;;;4908980;28;20522;-72
2023/03/21 09:53:56;;;;;;;1.30;1.20;;;18.80;44.90;;;;;;4920381;28;20468;-73
2023/03/21 09:56:23;;;;;;;1.33;1.23;;;18.90;45.00;;;;;;4922804;29;20943;-72
2023/03/21 09:58:53;;;;;;;1.43;1.33;;;18.80;44.90;;;;;;4920555;28;20500;-73
2023/03/21 10:01:34;;;;;;;1.30;1.20;;;18.80;44.80;;;;;;4920420;29;20431;-73
2023/03/21 10:04:03;;;;;;;1.47;1.27;;;18.80;44.80;;;;;;4913183;28;20473;-74
2023/03/21 10:06:30;;;;;;;1.77;1.67;;;18.90;45.00;;;;;;4917344;29;20951;-72
2023/03/21 10:09:12;;;;;;;1.30;1.20;;;18.80;44.80;;;;;;4917043;28;20577;-73
2023/03/21 10:12:03;;;;;;;1.40;1.30;;;18.90;45.70;;;;;;4918393;29;21348;-74
2023/03/21 10:14:30;;;;;;;1.60;1.50;;;18.80;44.90;;;;;;4909875;29;20446;-73
2023/03/21 10:17:14;;;;;;;1.30;1.20;;;18.90;45.00;;;;;;4902672;29;21073;-73
2023/03/21 10:19:45;;;;;;;1.50;1.40;;;18.80;44.80;;;;;;4920783;28;20449;-73
2023/03/21 10:22:11;;;;;;;1.30;1.20;;;18.90;45.00;;;;;;4916818;29;20446;-73
2023/03/21 10:24:36;;;;;;;1.50;1.40;;;18.80;45.00;;;;;;4916209;29;21085;-73
2023/03/21 10:27:03;;;;;;;1.60;1.23;;;18.80;45.00;;;;;;4919667;29;20238;-73
2023/03/21 10:29:41;;;;;;;1.47;1.37;;;18.80;44.90;;;;;;4902048;29;21168;-73
2023/03/21 10:32:10;;;;;;;2.13;1.83;;;18.80;44.90;;;;;;4920187;28;20528;-74
2023/03/21 10:34:41;;;;;;;1.50;1.40;;;18.80;44.90;;;;;;4919360;29;20435;-73
2023/03/21 10:37:07;;;;;;;1.30;1.20;;;18.90;45.00;;;;;;4933394;28;20445;-73
2023/03/21 10:39:41;;;;;;;1.83;1.60;;;18.90;45.00;;;;;;4942713;28;20579;-73
2023/03/21 10:42:20;;;;;;;1.57;1.20;;;18.90;45.00;;;;;;4939118;28;20458;-73
2023/03/21 10:44:48;;;;;;;1.37;1.20;;;18.90;45.00;;;;;;4943815;28;20434;-71
2023/03/21 10:47:23;;;;;;;1.50;1.20;;;18.80;44.80;;;;;;4927143;28;20983;-73
2023/03/21 10:49:49;;;;;;;1.30;1.20;;;18.90;45.00;;;;;;4941602;28;20508;-73
2023/03/21 10:52:18;;;;;;;1.70;1.60;;;18.80;44.90;;;;;;4940432;28;20429;-72
2023/03/21 10:54:44;;;;;;;1.37;1.27;;;18.80;45.00;;;;;;4938871;28;20232;-71
2023/03/21 10:57:14;;;;;;;1.30;1.17;;;18.80;44.80;;;;;;4938034;28;20467;-72
2023/03/21 11:00:01;;;;;;;1.60;1.50;;;18.80;44.80;;;;;;4943791;28;20430;-74
2023/03/21 11:02:34;;;;;;;1.60;1.50;;;18.90;44.90;;;;;;4936120;28;20488;-75
2023/03/21 11:05:17;;;;;;;1.30;1.20;;;18.80;44.80;;;;;;4941080;28;20474;-77
2023/03/21 11:07:43;;;;;;;1.30;1.20;;;18.80;44.80;;;;;;4927340;28;20783;-78
2023/03/21 11:10:15;;;;;;;1.37;1.27;;;18.80;45.00;;;;;;4943508;28;20485;-74
2023/03/21 11:12:45;;;;;;;1.40;1.20;;;18.90;44.90;;;;;;4939108;28;20225;-72
2023/03/21 11:15:29;;;;;;;1.30;1.20;;;18.80;44.80;;;;;;4939926;28;20472;-72
2023/03/21 11:17:56;;;;;;;1.30;1.20;;;18.90;44.90;;;;;;4937120;28;21368;-71
2023/03/21 11:20:21;;;;;;;1.50;1.40;;;18.80;44.80;;;;;;4936810;28;20457;-72
2023/03/21 11:22:48;;;;;;;1.60;1.10;;;18.90;44.90;;;;;;4934345;28;20460;-72
2023/03/21 11:25:35;;;;;;;1.53;1.40;;;18.90;44.80;;;;;;4937600;28;20257;-71
2023/03/21 11:28:14;;;;;;;1.13;1.03;;;18.90;44.80;;;;;;4943044;28;20430;-72
2023/03/21 11:30:55;;;;;;;1.40;1.30;;;18.80;44.70;;;;;;4938835;28;20513;-72
2023/03/21 11:33:48;;;;;;;1.53;1.43;;;18.90;45.60;;;;;;4938398;28;20465;-72
2023/03/21 11:36:19;;;;;;;1.30;1.20;;;18.90;44.80;;;;;;4917192;28;20942;-72
2023/03/21 11:39:13;;;;;;;1.30;1.20;;;18.90;44.90;;;;;;4942992;28;21082;-72
2023/03/21 11:41:42;;;;;;;1.20;1.10;;;18.90;44.80;;;;;;4938690;28;20480;-72
2023/03/21 11:44:25;;;;;;;1.20;1.10;;;18.80;44.70;;;;;;4939746;28;20502;-72
2023/03/21 11:46:51;;;;;;;1.30;1.20;;;18.80;44.70;;;;;;4941515;28;21109;-70
2023/03/21 11:49:17;;;;;;;1.53;1.43;;;18.90;44.80;;;;;;4926477;28;20522;-73
2023/03/21 11:52:02;;;;;;;1.20;1.10;;;18.90;44.80;;;;;;4937727;28;20331;-75
2023/03/21 11:54:35;;;;;;;1.20;1.10;;;18.90;44.80;;;;;;4935557;28;20245;-72
2023/03/21 11:57:21;;;;;;;1.40;1.30;;;18.90;44.80;;;;;;4937269;28;20810;-76
2023/03/21 11:59:46;;;;;;;1.93;1.27;;;18.90;44.80;;;;;;4938655;28;20940;-74
2023/03/21 12:02:15;;;;;;;1.33;1.23;;;18.90;44.80;;;;;;4936578;28;20422;-74
2023/03/21 12:04:51;;;;;;;1.30;1.20;;;18.90;44.80;;;;;;4938553;28;20237;-75
2023/03/21 12:07:25;;;;;;;1.20;1.10;;;18.90;44.70;;;;;;4939218;28;20436;-70
2023/03/21 12:10:23;;;;;;;1.33;1.23;;;18.90;44.80;;;;;;4942527;28;20495;-72
2023/03/21 12:13:06;;;;;;;1.60;1.40;;;18.90;44.80;;;;;;4940954;28;21098;-71
2023/03/21 12:15:59;;;;;;;1.30;1.20;;;18.90;44.80;;;;;;4940509;28;20466;-72
2023/03/21 12:18:39;;;;;;;1.40;1.30;;;18.90;44.80;;;;;;4938195;28;20482;-71
2023/03/21 12:21:30;;;;;;;1.70;1.40;;;18.90;44.70;;;;;;4944931;28;20940;-71
2023/03/21 12:24:46;;;;;;;1.57;1.47;;;18.90;44.80;;;;;;4941744;28;20436;-72
2023/03/21 12:27:41;;;;;;;1.57;1.07;;;18.90;44.70;;;;;;4901605;28;21056;-71
2023/03/21 12:30:24;;;;;;;1.23;1.13;;;18.90;44.70;;;;;;4942478;28;20453;-73
2023/03/21 12:33:04;;;;;;;1.40;1.30;;;18.90;44.80;;;;;;4942393;28;20498;-72
2023/03/21 12:35:44;;;;;;;1.50;1.40;;;18.90;44.80;;;;;;4943632;28;20451;-72
2023/03/21 12:38:29;;;;;;;1.00;1.00;;;18.90;44.80;;;;;;4939650;28;20454;-73
2023/03/21 12:41:26;;;;;;;2.30;1.30;;;18.90;44.80;;;;;;4939021;28;20991;-71
2023/03/21 12:44:18;;;;;;;1.43;1.23;;;18.90;44.80;;;;;;4937698;28;20525;-72
2023/03/21 12:46:53;;;;;;;1.43;1.33;;;18.90;44.80;;;;;;4942154;28;20481;-72
2023/03/21 12:49:48;;;;;;;1.40;1.30;;;18.90;44.80;;;;;;4924086;28;20453;-71
2023/03/21 12:52:22;;;;;;;1.50;1.40;;;18.90;44.70;;;;;;4940501;28;20475;-72
2023/03/21 12:55:02;;;;;;;1.27;1.17;;;18.90;44.80;;;;;;4940264;28;20576;-73
2023/03/21 12:57:36;;;;;;;1.23;1.13;;;18.90;44.70;;;;;;4939572;28;20517;-74
2023/03/21 13:00:11;;;;;;;1.30;1.20;;;18.90;44.80;;;;;;4937684;28;20630;-72
2023/03/21 13:02:58;;;;;;;1.57;1.10;;;18.90;44.80;;;;;;4936590;28;20441;-72
2023/03/21 13:06:17;;;;;;;1.10;1.00;;;18.90;44.80;;;;;;4940703;28;20434;-73
2023/03/21 13:08:57;;;;;;;1.77;1.20;;;18.90;44.80;;;;;;4904664;28;20432;-73
2023/03/21 13:11:26;;;;;;;1.20;1.10;;;18.90;44.80;;;;;;4937719;28;20997;-71
2023/03/21 13:14:14;;;;;;;1.53;1.27;;;18.90;44.80;;;;;;4937441;28;20527;-73
2023/03/21 13:16:49;;;;;;;1.90;1.30;;;18.90;44.80;;;;;;4938990;28;21852;-71